createdAt,value
2022-09-10T00:01:40.685Z,88.34
2022-09-10T00:04:11.780Z,88.29
2022-09-10T00:06:41.447Z,90.49
2022-09-10T00:09:10.496Z,91.37
2022-09-10T00:11:41.647Z,91.87
2022-09-10T00:14:15.117Z,92.82
2022-09-10T00:16:44.203Z,92.13
2022-09-10T00:19:13.162Z,92.65
2022-09-10T00:21:42.101Z,92.27
2022-09-10T00:24:11.079Z,92.51
2022-09-10T00:26:41.248Z,93.50
2022-09-10T00:29:12.376Z,93.35
2022-09-10T00:31:41.245Z,92.96
2022-09-10T00:34:11.503Z,93.48
2022-09-10T00:36:41.979Z,91.87
2022-09-10T00:39:12.926Z,93.91
2022-09-10T00:41:44.922Z,93.38
2022-09-10T00:44:57.836Z,91.64
2022-09-10T00:47:29.391Z,92.94
2022-09-10T00:50:01.820Z,91.28
2022-09-10T00:52:30.595Z,90.27
2022-09-10T00:54:59.910Z,93.90
2022-09-10T00:57:30.244Z,91.99
2022-09-10T01:00:01.709Z,91.41
2022-09-10T01:02:30.502Z,91.82
2022-09-10T01:04:59.208Z,92.42
2022-09-10T01:07:29.307Z,94.63
2022-09-10T01:09:58.878Z,91.95
2022-09-10T01:12:43.617Z,91.33
2022-09-10T01:15:20.097Z,92.74
2022-09-10T01:18:03.385Z,93.29
2022-09-10T01:20:51.115Z,94.59
2022-09-10T01:24:06.465Z,92.59
2022-09-10T01:27:08.354Z,93.96
2022-09-10T01:29:40.647Z,93.96
2022-09-10T01:32:12.921Z,94.63
2022-09-10T01:34:45.757Z,93.30
2022-09-10T01:37:17.542Z,93.07
2022-09-10T01:39:47.439Z,95.10
2022-09-10T01:42:16.290Z,96.42
2022-09-10T01:44:48.188Z,98.11
2022-09-10T01:47:26.968Z,98.60
2022-09-10T01:50:14.072Z,96.90
2022-09-10T01:52:47.812Z,96.84
2022-09-10T01:55:26.775Z,96.06
2022-09-10T01:58:01.199Z,97.61
2022-09-10T02:00:33.333Z,98.37
2022-09-10T02:03:06.451Z,97.95
2022-09-10T02:05:37.591Z,96.91
2022-09-10T02:08:16.543Z,96.98
2022-09-10T02:10:52.157Z,95.11
2022-09-10T02:13:21.396Z,94.88
2022-09-10T02:15:52.326Z,94.60
2022-09-10T02:18:21.531Z,97.29
2022-09-10T02:20:51.813Z,97.48
2022-09-10T02:23:23.775Z,97.06
2022-09-10T02:25:53.679Z,96.20
2022-09-10T02:28:22.337Z,96.64
2022-09-10T02:30:52.863Z,97.25
2022-09-10T02:33:21.841Z,97.84
2022-09-10T02:35:51.971Z,97.87
2022-09-10T02:38:21.332Z,98.67
2022-09-10T02:40:50.048Z,97.60
2022-09-10T02:43:18.775Z,97.97
2022-09-10T02:45:47.475Z,99.49
2022-09-10T02:48:18.225Z,99.31
2022-09-10T02:50:47.236Z,99.51
2022-09-10T02:53:16.154Z,100.00
2022-09-10T02:55:46.114Z,99.40
2022-09-10T02:58:15.077Z,99.06
2022-09-10T03:00:43.936Z,99.63
2022-09-10T03:03:13.038Z,100.00
2022-09-10T03:05:43.308Z,99.64
2022-09-10T03:08:11.971Z,99.45
2022-09-10T03:10:41.186Z,99.68
2022-09-10T03:13:09.862Z,99.38
2022-09-10T03:15:38.480Z,100.00
2022-09-10T03:18:08.276Z,100.00
2022-09-10T03:20:36.961Z,100.00
2022-09-10T03:23:07.354Z,98.59
2022-09-10T03:25:36.298Z,97.49
2022-09-10T03:28:04.959Z,97.85
2022-09-10T03:30:33.767Z,96.84
2022-09-10T03:33:02.474Z,98.08
2022-09-10T03:35:31.099Z,99.19
2022-09-10T03:37:59.734Z,98.38
2022-09-10T03:40:30.523Z,98.93
2022-09-10T03:42:59.205Z,99.93
2022-09-10T03:45:28.584Z,99.61
2022-09-10T03:47:57.464Z,99.94
2022-09-10T03:50:26.385Z,99.76
2022-09-10T03:52:55.019Z,100.00
2022-09-10T03:55:23.801Z,100.00
2022-09-10T03:57:53.829Z,99.61
2022-09-10T04:00:23.265Z,98.29
2022-09-10T04:02:52.029Z,97.52
2022-09-10T04:05:20.834Z,97.72
2022-09-10T04:07:49.452Z,96.26
2022-09-10T04:10:18.965Z,95.70
2022-09-10T04:12:48.810Z,98.01
2022-09-10T04:15:18.880Z,95.80
2022-09-10T04:17:48.272Z,95.50
2022-09-10T04:20:16.971Z,98.06
2022-09-10T04:22:46.371Z,97.15
2022-09-10T04:25:15.669Z,95.48
2022-09-10T04:27:44.362Z,95.40
2022-09-10T04:30:14.353Z,96.79
2022-09-10T04:32:45.096Z,96.47
2022-09-10T04:35:15.244Z,97.08
2022-09-10T04:37:44.160Z,96.15
2022-09-10T04:40:12.872Z,95.85
2022-09-10T04:42:41.641Z,95.92
2022-09-10T04:45:10.914Z,94.85
2022-09-10T04:47:39.588Z,95.28
2022-09-10T04:50:11.246Z,95.45
2022-09-10T04:52:39.934Z,95.19
2022-09-10T04:55:09.376Z,95.72
2022-09-10T04:57:38.073Z,95.77
2022-09-10T05:00:08.832Z,96.88
2022-09-10T05:02:37.628Z,95.35
2022-09-10T05:05:07.511Z,97.50
2022-09-10T05:07:37.477Z,96.75
2022-09-10T05:10:10.370Z,98.70
2022-09-10T05:12:40.354Z,99.18
2022-09-10T05:15:10.657Z,99.31
2022-09-10T05:17:39.766Z,99.93
2022-09-10T05:20:08.952Z,100.00
2022-09-10T05:22:40.726Z,99.40
2022-09-10T05:25:10.182Z,98.24
2022-09-10T05:27:38.883Z,97.81
2022-09-10T05:30:08.943Z,97.62
2022-09-10T05:32:38.442Z,97.79
2022-09-10T05:35:08.661Z,99.66
2022-09-10T05:37:37.239Z,100.00
2022-09-10T05:40:09.184Z,100.00
2022-09-10T05:42:38.174Z,98.19
2022-09-10T05:45:08.007Z,98.46
2022-09-10T05:47:37.505Z,97.41
2022-09-10T05:50:07.234Z,96.31
2022-09-10T05:52:35.916Z,97.80
2022-09-10T05:55:05.229Z,100.00
2022-09-10T05:57:35.449Z,97.73
2022-09-10T06:00:07.680Z,97.41
2022-09-10T06:02:36.540Z,99.15
2022-09-10T06:05:06.037Z,99.72
2022-09-10T06:07:35.210Z,99.92
2022-09-10T06:10:03.920Z,99.16
2022-09-10T06:12:34.168Z,95.90
2022-09-10T06:15:04.681Z,96.63
2022-09-10T06:17:33.701Z,96.72
2022-09-10T06:20:02.564Z,98.74
2022-09-10T06:22:32.011Z,97.17
2022-09-10T06:25:00.636Z,97.66
2022-09-10T06:27:29.803Z,97.94
2022-09-10T06:29:58.646Z,93.51
2022-09-10T06:32:28.998Z,92.42
2022-09-10T06:34:57.613Z,96.90
2022-09-10T06:37:26.941Z,97.00
2022-09-10T06:39:55.685Z,97.64
2022-09-10T06:42:24.300Z,94.40
2022-09-10T06:44:53.351Z,93.71
2022-09-10T06:50:12.291Z,95.22
2022-09-10T06:52:41.050Z,94.05
2022-09-10T06:55:10.694Z,92.01
2022-09-10T06:57:40.006Z,94.99
2022-09-10T07:00:10.149Z,97.10
2022-09-10T07:02:38.757Z,93.33
2022-09-10T07:05:07.928Z,93.83
2022-09-10T07:07:38.769Z,91.64
2022-09-10T07:10:08.413Z,93.98
2022-09-10T07:12:37.059Z,92.92
2022-09-10T07:15:06.412Z,90.06
2022-09-10T07:17:36.223Z,88.31
2022-09-10T07:20:05.701Z,89.20
2022-09-10T07:22:34.468Z,89.38
2022-09-10T07:25:04.984Z,86.72
2022-09-10T07:27:34.018Z,87.03
2022-09-10T07:30:02.674Z,90.08
2022-09-10T07:32:33.465Z,88.71
2022-09-10T07:35:02.133Z,87.34
2022-09-10T07:37:30.843Z,87.12
2022-09-10T07:39:59.827Z,85.31
2022-09-10T07:42:30.063Z,86.16
2022-09-10T07:44:59.129Z,85.49
2022-09-10T07:47:27.831Z,88.43
2022-09-10T07:49:56.883Z,89.72
2022-09-10T07:52:26.075Z,85.39
2022-09-10T07:54:54.752Z,84.12
2022-09-10T07:57:23.357Z,83.61
2022-09-10T07:59:53.773Z,83.31
2022-09-10T08:02:25.708Z,84.61
2022-09-10T08:04:54.610Z,84.78
2022-09-10T08:07:23.335Z,84.06
2022-09-10T08:09:51.945Z,81.82
2022-09-10T08:12:20.635Z,82.03
2022-09-10T08:14:49.328Z,85.49
2022-09-10T08:17:20.341Z,83.23
2022-09-10T08:19:50.585Z,81.58
2022-09-10T08:22:20.441Z,82.20
2022-09-10T08:24:49.425Z,81.86
2022-09-10T08:27:18.683Z,83.06
2022-09-10T08:29:47.338Z,83.83
2022-09-10T08:32:16.105Z,82.82
2022-09-10T08:34:46.152Z,80.47
2022-09-10T08:37:16.179Z,79.30
2022-09-10T08:39:44.997Z,79.73
2022-09-10T08:42:17.664Z,77.88
2022-09-10T08:44:50.327Z,78.13
2022-09-10T08:47:27.363Z,79.09
2022-09-10T08:50:00.323Z,80.34
2022-09-10T08:52:33.949Z,82.28
2022-09-10T08:55:07.649Z,78.37
2022-09-10T08:57:40.038Z,80.46
2022-09-10T09:00:14.523Z,79.73
2022-09-10T09:02:49.990Z,82.61
2022-09-10T09:05:22.726Z,80.23
2022-09-10T09:07:53.302Z,80.72
2022-09-10T09:10:30.311Z,75.88
2022-09-10T09:13:18.040Z,78.18
2022-09-10T09:15:51.756Z,75.50
2022-09-10T09:18:27.988Z,78.68
2022-09-10T09:21:01.849Z,73.07
2022-09-10T09:23:34.516Z,73.76
2022-09-10T09:26:05.810Z,75.94
2022-09-10T09:28:40.838Z,73.93
2022-09-10T09:31:14.901Z,73.41
2022-09-10T09:33:45.317Z,73.17
2022-09-10T09:36:19.043Z,72.16
2022-09-10T09:38:50.775Z,76.30
2022-09-10T09:41:26.176Z,74.20
2022-09-10T09:43:58.925Z,67.92
2022-09-10T09:46:27.733Z,68.50
2022-09-10T09:49:00.028Z,70.20
2022-09-10T09:51:35.367Z,70.23
2022-09-10T09:56:59.278Z,68.27
2022-09-10T09:59:29.836Z,65.69
2022-09-10T10:02:05.693Z,67.54
2022-09-10T10:04:41.511Z,66.36
2022-09-10T10:07:12.964Z,66.63
2022-09-10T10:09:44.440Z,65.31
2022-09-10T10:12:20.741Z,65.97
2022-09-10T10:14:49.976Z,64.44
2022-09-10T10:17:36.653Z,64.74
2022-09-10T10:20:13.320Z,67.01
2022-09-10T10:22:44.601Z,64.84
2022-09-10T10:25:41.126Z,64.65
2022-09-10T10:28:16.353Z,65.44
2022-09-10T10:30:45.273Z,65.27
2022-09-10T10:33:19.171Z,63.13
2022-09-10T10:35:49.860Z,63.73
2022-09-10T10:38:30.627Z,65.82
2022-09-10T10:41:24.264Z,63.11
2022-09-10T10:43:59.440Z,64.76
2022-09-10T10:46:30.201Z,65.15
2022-09-10T10:49:06.805Z,63.45
2022-09-10T10:51:44.176Z,64.04
2022-09-10T10:54:25.688Z,62.12
2022-09-10T10:57:02.491Z,61.48
2022-09-10T10:59:42.407Z,60.12
2022-09-10T11:02:16.208Z,60.05
2022-09-10T11:04:47.911Z,61.08
2022-09-10T11:07:23.703Z,58.75
2022-09-10T11:09:58.917Z,58.71
2022-09-10T11:12:31.482Z,56.13
2022-09-10T11:15:04.604Z,54.86
2022-09-10T11:17:39.351Z,56.99
2022-09-10T11:20:30.256Z,56.54
2022-09-10T11:23:04.747Z,55.85
2022-09-10T11:25:38.444Z,57.40
2022-09-10T11:28:12.946Z,54.67
2022-09-10T11:30:45.772Z,56.74
2022-09-10T11:33:18.825Z,56.27
2022-09-10T11:35:52.071Z,54.55
2022-09-10T11:38:27.699Z,54.67
2022-09-10T11:41:07.209Z,52.50
2022-09-10T11:43:41.104Z,55.21
2022-09-10T11:46:11.704Z,54.99
2022-09-10T11:48:43.480Z,54.97
2022-09-10T11:51:15.853Z,54.82
2022-09-10T11:53:45.313Z,54.90
2022-09-10T11:56:32.729Z,51.72
2022-09-10T11:59:10.869Z,53.41
2022-09-10T12:01:55.995Z,54.15
2022-09-10T12:04:40.453Z,54.34
2022-09-10T12:07:21.057Z,52.02
2022-09-10T12:09:58.372Z,54.32
2022-09-10T12:12:34.520Z,53.22
2022-09-10T12:15:08.942Z,51.39
2022-09-10T12:17:40.041Z,52.61
2022-09-10T12:20:15.876Z,52.98
2022-09-10T12:22:44.913Z,51.02
2022-09-10T12:25:28.362Z,52.03
2022-09-10T12:28:03.077Z,52.21
2022-09-10T12:31:02.724Z,50.40
2022-09-10T12:34:07.450Z,48.73
2022-09-10T12:37:16.691Z,49.32
2022-09-10T12:39:49.123Z,47.94
2022-09-10T12:42:28.983Z,49.01
2022-09-10T12:44:59.173Z,48.47
2022-09-10T12:47:43.647Z,48.45
2022-09-10T12:50:27.325Z,49.60
2022-09-10T12:53:08.004Z,49.91
2022-09-10T12:55:42.841Z,50.13
2022-09-10T12:58:24.167Z,49.54
2022-09-10T13:01:09.716Z,49.18
2022-09-10T13:03:38.513Z,49.52
2022-09-10T13:06:09.816Z,50.14
2022-09-10T13:08:41.479Z,50.57
2022-09-10T13:11:17.031Z,50.54
2022-09-10T13:13:51.650Z,50.90
2022-09-10T13:16:39.082Z,51.05
2022-09-10T13:19:45.175Z,52.25
2022-09-10T13:22:34.886Z,52.77
2022-09-10T13:25:18.874Z,51.79
2022-09-10T13:27:48.515Z,52.03
2022-09-10T13:30:19.246Z,53.39
2022-09-10T13:32:55.178Z,52.64
2022-09-10T13:35:59.867Z,51.43
2022-09-10T13:38:41.406Z,50.17
2022-09-10T13:41:27.850Z,50.13
2022-09-10T13:44:11.198Z,50.68
2022-09-10T13:46:42.650Z,51.68
2022-09-10T13:49:16.665Z,51.51
2022-09-10T13:51:50.428Z,51.47
2022-09-10T13:54:31.166Z,52.90
2022-09-10T13:57:04.738Z,52.76
2022-09-10T13:59:34.821Z,52.10
2022-09-10T14:02:03.478Z,52.87
2022-09-10T14:04:36.545Z,53.04
2022-09-10T14:07:08.033Z,53.09
2022-09-10T14:09:37.673Z,53.27
2022-09-10T14:12:08.859Z,54.49
2022-09-10T14:14:41.116Z,54.47
2022-09-10T14:17:11.921Z,53.28
2022-09-10T14:19:45.870Z,54.44
2022-09-10T14:22:17.790Z,54.81
2022-09-10T14:24:48.205Z,53.65
2022-09-10T14:27:18.536Z,53.17
2022-09-10T14:29:47.677Z,54.11
2022-09-10T14:32:36.207Z,53.68
2022-09-10T14:35:37.431Z,54.16
2022-09-10T14:38:22.507Z,55.14
2022-09-10T14:40:54.394Z,57.20
2022-09-10T14:43:29.466Z,56.64
2022-09-10T14:45:58.732Z,56.35
2022-09-10T14:48:36.990Z,56.42
2022-09-10T14:51:18.602Z,56.87
2022-09-10T14:53:51.500Z,56.70
2022-09-10T14:56:23.280Z,57.28
2022-09-10T14:58:58.267Z,57.03
2022-09-10T15:01:27.438Z,55.74
2022-09-10T15:03:56.457Z,56.43
2022-09-10T15:06:27.027Z,58.59
2022-09-10T15:08:57.092Z,58.30
2022-09-10T15:11:27.452Z,58.21
2022-09-10T15:13:58.743Z,57.13
2022-09-10T15:16:28.055Z,56.94
2022-09-10T15:18:58.270Z,57.52
2022-09-10T15:21:28.301Z,56.57
2022-09-10T15:23:56.941Z,55.32
2022-09-10T15:26:25.787Z,55.60
2022-09-10T15:28:54.455Z,53.22
2022-09-10T15:31:23.529Z,53.26
2022-09-10T15:33:52.571Z,53.18
2022-09-10T15:36:22.389Z,52.94
2022-09-10T15:38:55.827Z,53.45
2022-09-10T15:41:24.490Z,53.52
2022-09-10T15:43:53.219Z,53.55
2022-09-10T15:46:24.489Z,54.25
2022-09-10T15:48:53.542Z,53.87
2022-09-10T15:51:23.942Z,54.12
2022-09-10T15:53:53.838Z,54.73
2022-09-10T15:56:26.011Z,54.65
2022-09-10T15:58:56.129Z,54.89
2022-09-10T16:01:26.025Z,55.65
2022-09-10T16:03:56.313Z,59.40
2022-09-10T16:06:27.304Z,69.34
2022-09-10T16:08:57.943Z,73.54
2022-09-10T16:11:28.372Z,76.10
2022-09-10T16:14:02.182Z,76.34
2022-09-10T16:16:34.067Z,78.08
2022-09-10T16:19:02.876Z,78.86
2022-09-10T16:21:32.828Z,79.43
2022-09-10T16:24:02.427Z,80.23
2022-09-10T16:26:34.491Z,79.88
2022-09-10T16:29:05.717Z,80.73
2022-09-10T16:31:35.494Z,79.10
2022-09-10T16:34:05.625Z,79.93
2022-09-10T16:36:36.893Z,81.02
2022-09-10T16:39:12.375Z,82.80
2022-09-10T16:41:43.838Z,84.26
2022-09-10T16:44:14.738Z,82.00
2022-09-10T16:46:43.544Z,81.35
2022-09-10T16:49:13.815Z,84.14
2022-09-10T16:51:43.431Z,83.18
2022-09-10T16:54:13.800Z,84.40
2022-09-10T16:56:45.354Z,84.05
2022-09-10T16:59:15.932Z,84.32
2022-09-10T17:01:45.922Z,82.95
2022-09-10T17:04:20.444Z,82.73
2022-09-10T17:06:51.766Z,81.97
2022-09-10T17:09:20.481Z,83.13
2022-09-10T17:11:51.195Z,81.69
2022-09-10T17:14:20.272Z,82.49
2022-09-10T17:16:49.935Z,84.79
2022-09-10T17:19:20.145Z,84.61
2022-09-10T17:21:51.279Z,83.87
2022-09-10T17:24:22.687Z,84.60
2022-09-10T17:26:55.082Z,84.22
2022-09-10T17:29:25.322Z,84.88
2022-09-10T17:31:55.197Z,86.15
2022-09-10T17:34:25.177Z,86.15
2022-09-10T17:36:54.153Z,86.79
2022-09-10T17:39:23.272Z,88.03
2022-09-10T17:41:55.178Z,88.54
2022-09-10T17:44:24.300Z,90.33
2022-09-10T17:46:53.226Z,89.64
2022-09-10T17:49:22.043Z,90.26
2022-09-10T17:51:51.081Z,90.62
2022-09-10T17:54:20.034Z,90.39
2022-09-10T17:56:48.838Z,90.18
2022-09-10T17:59:18.916Z,88.22
2022-09-10T18:01:47.840Z,88.09
2022-09-10T18:04:16.710Z,87.19
2022-09-10T18:06:50.193Z,88.23
2022-09-10T18:09:21.945Z,87.89
2022-09-10T18:11:50.642Z,87.27
2022-09-10T18:14:21.910Z,88.16
2022-09-10T18:16:51.370Z,86.91
2022-09-10T18:19:21.171Z,85.21
2022-09-10T18:21:50.987Z,85.65
2022-09-10T18:24:20.850Z,81.98
2022-09-10T18:26:50.350Z,81.78
2022-09-10T18:29:22.546Z,79.75
2022-09-10T18:31:53.073Z,81.06
2022-09-10T18:34:24.056Z,82.58
2022-09-10T18:36:55.052Z,81.99
2022-09-10T18:39:25.963Z,83.36
2022-09-10T18:41:55.182Z,79.23
2022-09-10T18:44:27.222Z,79.90
2022-09-10T18:46:56.262Z,80.74
2022-09-10T18:49:25.847Z,79.69
2022-09-10T18:51:56.444Z,81.23
2022-09-10T18:54:28.092Z,78.46
2022-09-10T18:56:57.471Z,79.37
2022-09-10T18:59:27.744Z,78.08
2022-09-10T19:01:56.877Z,76.87
2022-09-10T19:04:27.395Z,77.36
2022-09-10T19:06:57.093Z,75.88
2022-09-10T19:09:27.882Z,76.07
2022-09-10T19:11:58.393Z,78.33
2022-09-10T19:14:30.545Z,78.69
2022-09-10T19:17:01.157Z,77.47
2022-09-10T19:19:31.722Z,76.36
2022-09-10T19:22:03.334Z,77.23
2022-09-10T19:27:21.644Z,75.72
2022-09-10T19:29:51.926Z,77.14
2022-09-10T19:32:21.029Z,77.08
2022-09-10T19:34:50.734Z,75.85
2022-09-10T19:37:19.735Z,75.92
2022-09-10T19:39:48.825Z,75.96
2022-09-10T19:42:18.282Z,76.63
2022-09-10T19:44:48.057Z,76.26
2022-09-10T19:47:19.512Z,77.01
2022-09-10T19:49:48.264Z,76.42
2022-09-10T19:52:17.033Z,76.37
2022-09-10T19:54:45.724Z,76.92
2022-09-10T19:57:14.495Z,77.26
2022-09-10T19:59:43.227Z,76.81
2022-09-10T20:02:11.979Z,76.92
2022-09-10T20:04:42.218Z,77.03
2022-09-10T20:07:10.881Z,76.72
2022-09-10T20:09:40.163Z,76.75
2022-09-10T20:12:09.796Z,76.97
2022-09-10T20:14:39.115Z,77.64
2022-09-10T20:17:07.853Z,77.67
2022-09-10T20:19:36.872Z,76.63
2022-09-10T20:22:07.786Z,77.80
2022-09-10T20:24:37.123Z,77.32
2022-09-10T20:27:06.270Z,77.28
2022-09-10T20:29:35.112Z,76.29
2022-09-10T20:32:04.166Z,77.39
2022-09-10T20:34:34.925Z,75.81
2022-09-10T20:37:04.235Z,75.94
2022-09-10T20:39:34.684Z,76.29
2022-09-10T20:42:04.612Z,75.55
2022-09-10T20:44:33.315Z,75.25
2022-09-10T20:47:03.386Z,75.86
2022-09-10T20:49:32.099Z,75.85
2022-09-10T20:52:00.837Z,76.18
2022-09-10T20:54:29.518Z,76.48
2022-09-10T20:57:00.282Z,76.85
2022-09-10T20:59:30.549Z,76.01
2022-09-10T21:01:59.458Z,75.87
2022-09-10T21:04:28.302Z,76.06
2022-09-10T21:06:57.131Z,77.26
2022-09-10T21:09:25.946Z,76.50
2022-09-10T21:11:54.723Z,76.86
2022-09-10T21:14:25.615Z,76.95
2022-09-10T21:16:54.328Z,77.07
2022-09-10T21:19:24.081Z,77.27
2022-09-10T21:21:53.063Z,77.52
2022-09-10T21:24:23.027Z,77.67
2022-09-10T21:26:53.551Z,77.83
2022-09-10T21:29:24.252Z,78.29
2022-09-10T21:31:54.796Z,78.22
2022-09-10T21:34:24.103Z,78.05
2022-09-10T21:36:52.860Z,77.84
2022-09-10T21:39:21.813Z,78.65
2022-09-10T21:41:51.349Z,78.28
2022-09-10T21:44:21.980Z,78.64
2022-09-10T21:46:52.642Z,78.38
2022-09-10T21:49:21.517Z,78.93
2022-09-10T21:51:50.439Z,78.95
2022-09-10T21:54:22.120Z,78.88
2022-09-10T21:56:54.085Z,79.50
2022-09-10T21:59:25.289Z,79.05
2022-09-10T22:01:55.986Z,79.28
2022-09-10T22:04:24.908Z,79.52
2022-09-10T22:06:54.472Z,80.01
2022-09-10T22:09:24.285Z,80.09
2022-09-10T22:11:54.267Z,79.77
2022-09-10T22:14:24.491Z,80.52
2022-09-10T22:16:53.595Z,80.82
2022-09-10T22:19:25.149Z,80.87
2022-09-10T22:21:56.671Z,81.09
2022-09-10T22:24:26.417Z,81.46
2022-09-10T22:26:55.200Z,81.85
2022-09-10T22:29:25.203Z,82.54
2022-09-10T22:31:54.021Z,83.35
2022-09-10T22:34:24.557Z,84.23
2022-09-10T22:36:53.456Z,82.34
2022-09-10T22:39:23.108Z,83.75
2022-09-10T22:41:52.302Z,84.01
2022-09-10T22:44:20.993Z,84.33
2022-09-10T22:46:49.900Z,83.34
2022-09-10T22:49:18.588Z,84.81
2022-09-10T22:51:48.966Z,84.46
2022-09-10T22:54:17.765Z,86.33
2022-09-10T22:56:46.389Z,84.92
2022-09-10T22:59:16.305Z,85.23
2022-09-10T23:01:47.326Z,85.83
2022-09-10T23:04:16.423Z,85.58
2022-09-10T23:06:45.221Z,85.88
2022-09-10T23:09:16.511Z,86.12
2022-09-10T23:11:45.675Z,85.63
2022-09-10T23:14:17.653Z,86.10
2022-09-10T23:16:48.363Z,86.55
2022-09-10T23:19:18.435Z,85.44
2022-09-10T23:21:48.703Z,85.26
2022-09-10T23:24:20.339Z,85.57
2022-09-10T23:26:49.500Z,85.24
2022-09-10T23:29:18.307Z,85.13
2022-09-10T23:31:47.756Z,85.64
2022-09-10T23:34:18.289Z,84.62
2022-09-10T23:36:48.789Z,85.18
2022-09-10T23:39:20.839Z,85.29
2022-09-10T23:41:49.874Z,85.16
2022-09-10T23:44:18.866Z,85.27
2022-09-10T23:46:47.960Z,84.52
2022-09-10T23:49:16.812Z,85.21
2022-09-10T23:51:45.537Z,85.41
2022-09-10T23:54:15.224Z,85.06
2022-09-10T23:56:45.506Z,85.11
2022-09-10T23:59:15.234Z,84.84
